Search for airport 
image banner adimage banner adimage banner ad
image banner ad

5IA0 - Skiff Medical Center

Located in Newton, United States

ICAO - 5IA0, IATA -

Data provided by Airmate  

General information

Coordinates: N41°42'13" W93°3'6"
Elevation is 947 feet MSL.
Magnetic variation is 03° East
View others Airports in Iowa

Operational data

Special qualification required
Current time UTC:
Current local time:
METAR: KTNU 150915Z AUTO 03006KT 10SM CLR 18/10 A3008 RMK A01
View NOTAMs / SUP AIP / TFR affecting this airport [VIEW]
Communications frequencies: [VIEW]

Runways:

Airport contact information

Address: Newton United States

Satellite view of 5IA0